Airfield :
LOGIN :

Register | Disclaimer

   EN    FR    IT 

 










Legend :    VFR   Marginal VFR   IFR   Intensive IFR   Very Intensive IFR
Visi :
Ceiling :
>= 8 km
>= 3000ft
5 to 8 km
1000 to 3000 ft
1500m to 5 km
500 to 1000 ft
800 to 1500m
200 to 500 ft
< 800m
< 200 ft
Symbols :   Thunderstorms  Fog  Heavy snow  Heavy precipitations  Wind > 20 kt
SIGMETs :     Misc.  Thunderstorms  Icing  Turbulence  Mountain Waves  Volcanic Ashes






- Airport Elevation : 138 ft
- IATA code : BIO


LEBB - Bilbao

CURRENT METAR :
  • 120500Z 20005KT 140V270 9999 SCT040 BKN050 09/07 Q1017 NOSIG

EXPIRED METARs :
  • 120430Z VRB01KT 9999 -RA BKN040 09/08 Q1018 NOSIG
  • 120400Z 00000KT 9999 -RA SCT037 BKN046 09/07 Q1018 NOSIG
  • 120330Z AUTO 20005KT 140V260 7000 RA SCT029 BKN036 BKN042 09/08 Q1018
  • 120300Z AUTO 00000KT 9999 -RA BKN039 BKN047 BKN055 09/08 Q1019
  • 120230Z AUTO VRB02KT 9999 SCT031 SCT037 BKN044 09/08 Q1019 RERA

TAF TAF LEBB
Valid from the 12 at 00:00 until the 13 at 00:00 UTC


112300Z 1200/1224 22009KT 9999 SCT020 BKN030 TX14/1300Z TN08/1206Z
TEMPO 1200/1206 3000 RA SHRA SCT030TCU
TEMPO 1209/1218 23015G25KT
TEMPO 1212/1224 3000 RA
BECMG 1215/1219 28015KT
TEMPO 1215/1224 1500 +RA BKN012
TEMPO 1218/1224 28020G35KT



MET'MAP, your aeronautical weather chart ! - Copyright ORBIFLY December 2007 - Disclaimer

ORBIFLY MET'MAP TEAM :

Programming & Development : Alexandra Zaïnal
Concept & original design : Baudouin d'Aumeries
Assistance for programming : Marc-Olivier Méhu
Technical & hardware support : Manuel Goepfert

Contact : metmap@orbifly.com




SOURCES & CREDITS :

   NOAA